Time;durP1;ratioP1;P1;durP2;ratioP2;P2;SDS_P1;SDS_P2;PMS_P1;PMS_P2;Temp;Humidity;BMP_temperature;BMP_pressure;BME280_temperature;BME280_humidity;BME280_pressure;Samples;Min_cycle;Max_cycle;Signal;HPM_P1;HPM_P2
2021/12/22 00:00:29;;;;;;;7.82;3.90;;;24.70;99.90;;;;;;5093592;28;20077;-71
2021/12/22 00:02:58;;;;;;;12.20;4.28;;;24.80;99.90;;;;;;5091247;28;20032;-71
2021/12/22 00:05:30;;;;;;;6.03;3.55;;;24.60;99.90;;;;;;5094107;28;20038;-72
2021/12/22 00:07:58;;;;;;;9.38;3.97;;;24.80;99.90;;;;;;5091523;28;20024;-72
2021/12/22 00:10:26;;;;;;;7.85;4.53;;;25.00;99.90;;;;;;5093897;28;20031;-70
2021/12/22 00:12:53;;;;;;;11.55;5.00;;;25.00;99.90;;;;;;5093528;28;20062;-71
2021/12/22 00:15:21;;;;;;;8.57;4.50;;;24.70;99.90;;;;;;5093725;28;20099;-72
2021/12/22 00:17:49;;;;;;;9.63;4.40;;;24.60;99.90;;;;;;5093515;28;20031;-71
2021/12/22 00:20:17;;;;;;;14.63;4.30;;;24.60;99.90;;;;;;5093524;28;20028;-71
2021/12/22 00:22:44;;;;;;;7.63;3.88;;;24.60;99.90;;;;;;5093451;28;20036;-70
2021/12/22 00:25:12;;;;;;;6.70;4.07;;;24.50;99.90;;;;;;5093495;28;20008;-72
2021/12/22 00:27:40;;;;;;;9.30;4.57;;;24.80;99.90;;;;;;5093761;28;20023;-69
2021/12/22 00:30:10;;;;;;;9.80;4.93;;;24.90;99.90;;;;;;5093184;28;20024;-70
2021/12/22 00:32:39;;;;;;;7.13;4.25;;;25.00;99.90;;;;;;5089792;28;20020;-71
2021/12/22 00:35:09;;;;;;;8.27;4.05;;;24.90;99.90;;;;;;5092793;28;20028;-70
2021/12/22 00:37:37;;;;;;;9.10;5.22;;;24.80;99.90;;;;;;5090569;28;20036;-72
2021/12/22 00:40:05;;;;;;;5.47;3.30;;;24.70;99.90;;;;;;5093346;28;20032;-71
2021/12/22 00:42:33;;;;;;;11.00;3.92;;;24.80;99.90;;;;;;5093009;28;20495;-71
2021/12/22 00:45:01;;;;;;;8.68;5.03;;;24.90;99.90;;;;;;5092918;28;20020;-71
2021/12/22 00:47:30;;;;;;;7.93;4.47;;;24.90;99.90;;;;;;5093350;28;20024;-71
2021/12/22 00:49:59;;;;;;;8.50;4.75;;;24.90;99.90;;;;;;5090686;28;20368;-69
2021/12/22 00:52:28;;;;;;;13.20;4.70;;;25.10;99.90;;;;;;5093239;28;20024;-70
2021/12/22 00:54:56;;;;;;;8.43;4.53;;;25.50;99.90;;;;;;5090266;28;20020;-71
2021/12/22 00:57:24;;;;;;;7.63;4.07;;;26.00;99.90;;;;;;5092953;28;20081;-72
2021/12/22 00:59:51;;;;;;;10.18;4.68;;;26.10;99.90;;;;;;5092838;28;20020;-69
2021/12/22 01:02:21;;;;;;;6.82;4.25;;;26.30;99.90;;;;;;5093049;28;20024;-71
2021/12/22 01:04:49;;;;;;;11.15;4.28;;;26.30;99.90;;;;;;5092773;28;20020;-71
2021/12/22 01:07:17;;;;;;;10.65;4.63;;;26.30;99.90;;;;;;5090161;28;20068;-71
2021/12/22 01:09:45;;;;;;;6.93;4.18;;;26.50;99.90;;;;;;5093203;28;20465;-72
2021/12/22 01:12:13;;;;;;;6.75;4.50;;;26.50;99.90;;;;;;5092874;28;20028;-71
2021/12/22 01:14:42;;;;;;;7.55;4.18;;;26.50;99.90;;;;;;5092943;28;20103;-69
2021/12/22 01:17:13;;;;;;;12.98;5.03;;;26.60;99.90;;;;;;5092811;28;20024;-71
2021/12/22 01:25:00;;;;;;;10.02;4.57;;;27.00;99.90;;;;;;5092867;28;20086;-70
2021/12/22 01:27:41;;;;;;;8.68;4.05;;;27.20;99.90;;;;;;5092719;28;20377;-73
2021/12/22 01:30:20;;;;;;;8.02;4.68;;;27.10;99.90;;;;;;5091716;28;20118;-71
2021/12/22 01:32:50;;;;;;;8.52;3.97;;;27.10;99.90;;;;;;5091870;28;20477;-72
2021/12/22 01:35:21;;;;;;;5.50;3.50;;;27.00;99.90;;;;;;5093435;28;20465;-70
2021/12/22 01:37:49;;;;;;;7.00;3.75;;;26.90;99.90;;;;;;5093007;28;20057;-72
2021/12/22 01:40:18;;;;;;;7.22;3.80;;;27.00;99.90;;;;;;5093188;28;20028;-73
2021/12/22 01:42:46;;;;;;;7.35;3.45;;;27.20;99.90;;;;;;5096217;28;20032;-70
2021/12/22 01:50:45;;;;;;;5.75;2.88;;;27.20;99.90;;;;;;5097225;28;20027;-73
2021/12/22 01:53:21;;;;;;;6.20;3.00;;;27.20;99.90;;;;;;5097084;28;20384;-73
2021/12/22 01:56:26;;;;;;;9.35;2.88;;;27.30;99.90;;;;;;5097217;28;20028;-74
2021/12/22 01:58:58;;;;;;;6.55;2.83;;;27.20;99.90;;;;;;5095553;28;20084;-69
2021/12/22 02:01:28;;;;;;;6.13;2.92;;;27.00;99.90;;;;;;5097048;28;20028;-73
2021/12/22 02:03:56;;;;;;;8.88;2.65;;;27.30;99.90;;;;;;5097026;28;20016;-70
2021/12/22 02:06:24;;;;;;;7.47;3.05;;;27.50;99.90;;;;;;5097104;28;20496;-70
2021/12/22 02:08:53;;;;;;;9.95;3.05;;;27.30;99.90;;;;;;5097116;28;20055;-72
2021/12/22 02:11:22;;;;;;;6.05;2.38;;;27.30;99.90;;;;;;5096881;28;20385;-70
2021/12/22 02:13:58;;;;;;;8.60;3.28;;;27.40;99.90;;;;;;5096655;28;20024;-74
2021/12/22 02:16:29;;;;;;;7.53;3.00;;;27.50;99.90;;;;;;5097006;28;20073;-68
2021/12/22 02:18:59;;;;;;;13.60;3.50;;;27.20;99.90;;;;;;5096677;28;20020;-69
2021/12/22 02:21:31;;;;;;;9.13;2.97;;;26.80;99.90;;;;;;5096690;28;20028;-73
2021/12/22 02:23:59;;;;;;;5.35;2.45;;;26.80;99.90;;;;;;5096574;28;20028;-73
2021/12/22 02:26:36;;;;;;;10.32;3.80;;;26.70;99.90;;;;;;5096528;28;20423;-74
2021/12/22 02:29:16;;;;;;;6.88;3.25;;;26.80;99.90;;;;;;5096498;28;20020;-72
2021/12/22 02:31:48;;;;;;;11.15;3.15;;;26.80;99.90;;;;;;5096557;28;20024;-73
2021/12/22 02:34:16;;;;;;;10.82;3.28;;;27.00;99.90;;;;;;5096499;28;20035;-73
2021/12/22 02:36:44;;;;;;;9.00;2.85;;;27.10;99.90;;;;;;5096152;28;20024;-72
2021/12/22 02:39:12;;;;;;;9.80;3.75;;;27.20;99.90;;;;;;5095936;28;20040;-75
2021/12/22 02:41:40;;;;;;;9.55;2.85;;;27.40;99.90;;;;;;5078086;28;20380;-72
2021/12/22 02:44:10;;;;;;;7.72;3.95;;;27.20;99.90;;;;;;5094618;28;20453;-73
2021/12/22 02:46:39;;;;;;;10.88;2.85;;;26.90;99.90;;;;;;5079462;28;20027;-74
2021/12/22 02:49:09;;;;;;;9.40;3.58;;;26.80;99.90;;;;;;5084589;28;20026;-74
2021/12/22 02:51:38;;;;;;;7.60;3.97;;;26.90;99.90;;;;;;5094201;28;20415;-74
2021/12/22 02:54:14;;;;;;;8.75;3.33;;;26.90;99.90;;;;;;5092769;28;20020;-67
2021/12/22 02:59:36;;;;;;;8.20;3.50;;;27.10;99.90;;;;;;5094917;28;20027;-73
2021/12/22 03:02:13;;;;;;;6.35;3.45;;;27.10;99.90;;;;;;5094593;28;20028;-70
2021/12/22 03:04:53;;;;;;;8.27;3.58;;;27.40;99.90;;;;;;5080650;28;20036;-73
2021/12/22 03:07:24;;;;;;;7.03;3.70;;;27.60;99.90;;;;;;5080140;28;20040;-74
2021/12/22 03:10:00;;;;;;;8.07;3.42;;;27.70;99.90;;;;;;5079450;28;20017;-72
2021/12/22 03:12:32;;;;;;;9.98;3.90;;;27.00;99.90;;;;;;5080022;28;20032;-74
2021/12/22 03:15:00;;;;;;;6.07;3.80;;;27.00;99.90;;;;;;5080373;28;20025;-73
2021/12/22 03:17:27;;;;;;;7.97;3.35;;;27.10;99.90;;;;;;5080206;28;20028;-74
2021/12/22 03:19:55;;;;;;;11.35;3.35;;;26.90;99.90;;;;;;5080162;28;20020;-72
2021/12/22 03:22:23;;;;;;;8.43;3.45;;;26.60;99.90;;;;;;5079745;28;20111;-73
2021/12/22 03:24:51;;;;;;;10.35;3.65;;;26.40;99.90;;;;;;5079400;28;20071;-73
2021/12/22 03:27:22;;;;;;;7.25;2.85;;;26.30;99.90;;;;;;5077866;28;20032;-73
2021/12/22 03:29:49;;;;;;;7.97;3.40;;;26.60;99.90;;;;;;5075885;28;20044;-73
2021/12/22 03:32:16;;;;;;;7.43;3.88;;;26.60;99.90;;;;;;5073567;28;20026;-71
2021/12/22 03:34:44;;;;;;;7.10;2.97;;;26.20;99.90;;;;;;5073461;28;20028;-74
2021/12/22 03:37:13;;;;;;;8.73;3.92;;;26.40;99.90;;;;;;5073110;28;20547;-71
2021/12/22 03:39:40;;;;;;;6.03;3.55;;;26.10;99.90;;;;;;5073645;28;20024;-74
2021/12/22 03:42:09;;;;;;;5.65;3.17;;;26.20;99.90;;;;;;5073965;28;20085;-73
2021/12/22 03:44:37;;;;;;;4.60;3.20;;;26.20;99.90;;;;;;5073763;28;20016;-68
2021/12/22 03:47:05;;;;;;;5.75;3.10;;;26.40;99.90;;;;;;5073950;28;20027;-70
2021/12/22 03:49:33;;;;;;;5.80;3.30;;;26.40;99.90;;;;;;5073898;28;20024;-70
2021/12/22 03:52:00;;;;;;;5.38;3.15;;;26.40;99.90;;;;;;5075539;28;20470;-68
2021/12/22 03:54:27;;;;;;;15.15;3.65;;;26.20;99.90;;;;;;5094018;28;20561;-72
2021/12/22 03:56:55;;;;;;;6.38;2.90;;;26.00;99.90;;;;;;5093851;28;20437;-75
2021/12/22 03:59:23;;;;;;;7.30;3.03;;;26.00;99.90;;;;;;5093867;28;20027;-73
2021/12/22 04:01:52;;;;;;;5.25;3.10;;;26.20;99.90;;;;;;5093692;28;20546;-74
2021/12/22 04:04:20;;;;;;;6.53;3.92;;;26.10;99.90;;;;;;5093696;28;20100;-74
2021/12/22 04:06:50;;;;;;;5.07;2.90;;;26.10;99.90;;;;;;5093839;28;20686;-72
2021/12/22 04:09:26;;;;;;;6.13;3.30;;;26.40;99.90;;;;;;5093882;28;20020;-69
2021/12/22 04:11:54;;;;;;;7.70;2.97;;;26.60;99.90;;;;;;5093804;28;20110;-69
2021/12/22 04:14:21;;;;;;;8.75;3.35;;;26.10;99.90;;;;;;5093552;28;20465;-70
2021/12/22 04:16:49;;;;;;;6.47;3.13;;;25.80;99.90;;;;;;5093357;28;20028;-73
2021/12/22 04:19:16;;;;;;;9.98;3.08;;;25.90;99.90;;;;;;5093922;28;20058;-72
2021/12/22 04:21:43;;;;;;;5.80;3.17;;;25.80;99.90;;;;;;5072611;28;20568;-67
2021/12/22 04:24:11;;;;;;;6.43;2.60;;;25.70;99.90;;;;;;5076574;28;20091;-67
2021/12/22 04:26:39;;;;;;;17.02;3.45;;;25.70;99.90;;;;;;5092635;28;20081;-71
2021/12/22 04:29:07;;;;;;;5.45;2.70;;;25.90;99.90;;;;;;5093045;28;20019;-72
2021/12/22 04:31:34;;;;;;;14.05;3.30;;;26.20;99.90;;;;;;5093245;28;20427;-69
2021/12/22 04:34:04;;;;;;;9.23;2.47;;;26.30;99.90;;;;;;5092970;28;20020;-68
2021/12/22 04:36:31;;;;;;;5.63;2.40;;;26.10;99.90;;;;;;5092668;28;20020;-72
2021/12/22 04:38:59;;;;;;;7.97;2.97;;;25.80;99.90;;;;;;5092899;28;20477;-67
2021/12/22 04:41:30;;;;;;;5.43;2.67;;;25.60;99.90;;;;;;5092831;28;20040;-71
2021/12/22 04:43:58;;;;;;;7.85;3.20;;;25.40;99.90;;;;;;5092856;28;20107;-72
2021/12/22 04:46:25;;;;;;;17.20;3.70;;;25.20;99.90;;;;;;5092820;28;20528;-71
2021/12/22 04:48:52;;;;;;;9.45;3.47;;;25.10;99.90;;;;;;5092841;28;20020;-72
2021/12/22 04:51:30;;;;;;;11.27;4.10;;;25.10;99.90;;;;;;5092821;28;20091;-70
2021/12/22 04:56:26;;;;;;;12.32;3.92;;;25.50;99.90;;;;;;5093044;28;20020;-68
2021/12/22 04:58:53;;;;;;;10.50;3.92;;;25.80;99.90;;;;;;5092526;28;20424;-73
2021/12/22 05:01:21;;;;;;;12.30;3.28;;;26.00;99.90;;;;;;5091027;28;20036;-71
2021/12/22 05:03:48;;;;;;;11.75;4.32;;;25.50;99.90;;;;;;5092733;28;20024;-69
2021/12/22 05:06:16;;;;;;;10.60;3.97;;;25.10;99.90;;;;;;5092671;28;20065;-69
2021/12/22 05:08:43;;;;;;;12.15;4.45;;;24.70;99.90;;;;;;5092583;28;20024;-72
2021/12/22 05:11:10;;;;;;;9.32;4.20;;;24.90;99.90;;;;;;5092579;28;20038;-71
2021/12/22 05:13:37;;;;;;;11.50;3.97;;;25.30;99.90;;;;;;5092294;28;20043;-68
2021/12/22 05:16:06;;;;;;;12.43;4.55;;;25.10;99.90;;;;;;5091544;28;20031;-68
2021/12/22 05:21:15;;;;;;;12.35;4.53;;;24.80;99.90;;;;;;5092331;28;20500;-67
2021/12/22 05:23:43;;;;;;;17.27;5.65;;;24.40;99.90;;;;;;5089789;28;20024;-67
2021/12/22 05:26:10;;;;;;;13.93;4.63;;;24.30;99.90;;;;;;5092393;28;20012;-69
2021/12/22 05:28:37;;;;;;;10.35;4.28;;;24.20;99.90;;;;;;5092177;28;20047;-68
2021/12/22 05:31:05;;;;;;;14.02;4.68;;;24.10;99.90;;;;;;5092270;28;20024;-73
2021/12/22 05:33:32;;;;;;;16.00;4.82;;;24.10;99.90;;;;;;5092288;28;20388;-68
2021/12/22 05:35:59;;;;;;;11.38;4.88;;;24.10;99.90;;;;;;5092422;28;20012;-67
2021/12/22 05:38:27;;;;;;;17.67;4.70;;;23.90;99.90;;;;;;5091887;28;20101;-68
2021/12/22 05:40:55;;;;;;;14.43;4.05;;;24.00;99.90;;;;;;5092145;28;20039;-70
2021/12/22 05:43:23;;;;;;;12.65;4.15;;;24.10;99.90;;;;;;5092279;28;20020;-68
2021/12/22 05:45:50;;;;;;;12.13;4.22;;;24.20;99.90;;;;;;5092084;28;20032;-68
2021/12/22 05:48:19;;;;;;;15.98;5.13;;;24.10;99.90;;;;;;5092128;28;20475;-67
2021/12/22 05:50:50;;;;;;;17.05;5.18;;;24.00;99.90;;;;;;5092169;28;20024;-71
2021/12/22 05:53:18;;;;;;;11.30;4.40;;;24.00;99.90;;;;;;5092299;28;20503;-69
2021/12/22 05:55:46;;;;;;;13.75;4.68;;;24.10;99.90;;;;;;5092067;28;20016;-69
2021/12/22 05:58:17;;;;;;;13.30;4.90;;;24.30;99.90;;;;;;5090704;28;20017;-69
2021/12/22 06:00:45;;;;;;;17.30;5.10;;;24.00;99.90;;;;;;5074101;28;20036;-69
2021/12/22 06:03:12;;;;;;;10.88;4.20;;;23.90;99.90;;;;;;5092105;28;20372;-72
2021/12/22 06:05:41;;;;;;;10.13;4.90;;;24.10;99.90;;;;;;5091930;28;20473;-68
2021/12/22 06:08:09;;;;;;;22.52;3.85;;;24.40;99.90;;;;;;5091948;28;20078;-68
2021/12/22 06:10:37;;;;;;;14.90;4.68;;;24.60;99.90;;;;;;5091963;28;20493;-68
2021/12/22 06:13:07;;;;;;;7.45;4.28;;;24.40;99.90;;;;;;5091953;28;20469;-69
2021/12/22 06:15:36;;;;;;;15.18;5.00;;;24.10;99.90;;;;;;5092079;28;20056;-69
2021/12/22 06:18:08;;;;;;;12.23;4.50;;;24.20;99.90;;;;;;5089172;28;20017;-68
2021/12/22 06:20:36;;;;;;;13.13;4.32;;;24.40;99.90;;;;;;5090989;28;20047;-69
2021/12/22 06:23:05;;;;;;;14.77;4.07;;;24.20;99.90;;;;;;5073589;28;20366;-69
2021/12/22 06:25:32;;;;;;;10.48;3.53;;;24.10;99.90;;;;;;5091456;28;20020;-70
2021/12/22 06:28:00;;;;;;;9.35;4.03;;;24.10;99.90;;;;;;5093313;28;20388;-68
2021/12/22 06:30:28;;;;;;;12.07;4.05;;;24.00;99.90;;;;;;5095560;28;20566;-71
2021/12/22 06:32:55;;;;;;;13.75;4.63;;;24.00;99.90;;;;;;5095779;28;20532;-72
2021/12/22 06:35:23;;;;;;;12.30;4.53;;;23.90;99.90;;;;;;5095292;28;20028;-73
2021/12/22 06:37:52;;;;;;;17.45;5.18;;;23.80;99.90;;;;;;5094940;28;20042;-74
2021/12/22 06:40:20;;;;;;;10.68;5.03;;;23.70;99.90;;;;;;5095133;28;20016;-73
2021/12/22 06:42:48;;;;;;;10.52;3.83;;;23.60;99.90;;;;;;5095180;28;20036;-71
2021/12/22 06:45:16;;;;;;;10.57;4.30;;;23.80;99.90;;;;;;5095164;28;20040;-72
2021/12/22 06:47:44;;;;;;;12.80;4.13;;;23.80;99.90;;;;;;5095187;28;20020;-73
2021/12/22 06:50:12;;;;;;;13.00;5.03;;;23.70;99.90;;;;;;5095183;28;20069;-68
2021/12/22 06:52:39;;;;;;;13.82;5.03;;;23.50;99.90;;;;;;5094966;28;20077;-73
2021/12/22 06:55:07;;;;;;;10.70;4.78;;;23.50;99.90;;;;;;5095088;28;20024;-73
2021/12/22 06:57:36;;;;;;;13.63;4.32;;;23.60;99.90;;;;;;5094749;28;20027;-74
2021/12/22 07:00:07;;;;;;;12.18;3.90;;;23.70;99.90;;;;;;5094953;28;20054;-72
2021/12/22 07:02:37;;;;;;;14.95;5.45;;;23.70;99.90;;;;;;5094787;28;20157;-71
2021/12/22 07:05:07;;;;;;;15.50;4.82;;;23.80;99.90;;;;;;5095035;28;20023;-70
2021/12/22 07:07:34;;;;;;;15.07;4.22;;;23.70;99.90;;;;;;5094714;28;20020;-70
2021/12/22 07:10:04;;;;;;;14.13;3.53;;;23.40;99.90;;;;;;5076604;28;20020;-69
2021/12/22 07:12:31;;;;;;;8.32;3.70;;;23.60;99.90;;;;;;5094673;28;20015;-70
2021/12/22 07:14:59;;;;;;;9.63;3.42;;;23.70;99.90;;;;;;5094595;28;20059;-72
2021/12/22 07:17:27;;;;;;;9.43;3.90;;;23.70;99.90;;;;;;5094396;28;20373;-69
2021/12/22 07:19:55;;;;;;;9.95;3.42;;;23.60;99.90;;;;;;5079985;28;20025;-69
2021/12/22 07:22:22;;;;;;;13.45;3.63;;;23.50;99.90;;;;;;5091496;28;20043;-70
2021/12/22 07:24:50;;;;;;;6.93;3.33;;;23.30;99.90;;;;;;5092932;28;20431;-68
2021/12/22 07:27:17;;;;;;;9.27;2.60;;;23.20;99.90;;;;;;5093063;28;20111;-69
2021/12/22 07:29:45;;;;;;;12.23;3.72;;;23.20;99.90;;;;;;5090336;28;20373;-70
2021/12/22 07:32:13;;;;;;;18.42;3.92;;;23.20;99.90;;;;;;5093549;28;20024;-71
2021/12/22 07:34:51;;;;;;;12.40;3.72;;;23.30;99.90;;;;;;5094238;28;20028;-71
2021/12/22 07:37:37;;;;;;;7.30;3.35;;;23.40;99.90;;;;;;5094048;28;20468;-70
2021/12/22 07:40:06;;;;;;;11.75;3.50;;;23.50;99.90;;;;;;5093370;28;20032;-70
2021/12/22 07:42:34;;;;;;;13.70;4.00;;;23.40;99.90;;;;;;5091360;28;20070;-69
2021/12/22 07:45:02;;;;;;;11.57;3.58;;;23.40;99.90;;;;;;5094100;28;20024;-69
2021/12/22 07:47:30;;;;;;;13.25;3.00;;;23.40;99.90;;;;;;5094248;28;20045;-69
2021/12/22 07:49:58;;;;;;;7.10;3.25;;;23.40;99.90;;;;;;5093460;28;20040;-73
2021/12/22 07:52:27;;;;;;;14.95;3.55;;;23.40;99.90;;;;;;5092213;28;20028;-72
2021/12/22 07:54:58;;;;;;;17.38;2.90;;;23.30;99.90;;;;;;5093248;28;20031;-73
2021/12/22 07:57:26;;;;;;;8.75;2.55;;;23.10;99.90;;;;;;5092214;28;20027;-70
2021/12/22 07:59:54;;;;;;;8.52;3.78;;;23.10;99.90;;;;;;5089005;28;20024;-68
2021/12/22 08:02:22;;;;;;;9.20;2.88;;;22.90;99.90;;;;;;5085811;28;20393;-71
2021/12/22 08:04:49;;;;;;;9.35;2.63;;;22.80;99.90;;;;;;5084868;28;20445;-72
2021/12/22 08:07:17;;;;;;;9.27;2.50;;;22.80;99.90;;;;;;5086082;28;20021;-70
2021/12/22 08:09:45;;;;;;;11.60;2.80;;;22.80;99.90;;;;;;5085657;28;20028;-70
2021/12/22 08:12:12;;;;;;;13.18;2.70;;;22.80;99.90;;;;;;5086405;28;20422;-69
2021/12/22 08:14:40;;;;;;;9.15;3.03;;;22.90;99.90;;;;;;5086101;28;20369;-73
2021/12/22 08:17:10;;;;;;;15.90;3.55;;;22.90;99.90;;;;;;5085941;28;20016;-71
2021/12/22 08:19:38;;;;;;;12.90;2.92;;;22.70;99.90;;;;;;5085920;28;20032;-70
2021/12/22 08:22:06;;;;;;;6.50;2.90;;;22.70;99.90;;;;;;5079041;28;20028;-72
2021/12/22 08:24:34;;;;;;;10.05;2.88;;;22.70;99.90;;;;;;5073276;28;20023;-73
2021/12/22 08:27:01;;;;;;;7.72;2.17;;;22.70;99.90;;;;;;5073042;28;20373;-72
2021/12/22 08:29:29;;;;;;;14.43;3.10;;;22.60;99.90;;;;;;5073217;28;20013;-72
2021/12/22 08:31:57;;;;;;;13.57;2.38;;;22.60;99.90;;;;;;5081946;28;20024;-72
2021/12/22 08:34:34;;;;;;;5.28;2.15;;;22.60;99.90;;;;;;5086172;28;20516;-70
2021/12/22 08:39:47;;;;;;;;;;;22.60;99.90;;;;;;5086572;28;20051;-72
2021/12/22 08:42:15;;;;;;;5.40;1.63;;;22.60;99.90;;;;;;5077556;28;19912;-72
2021/12/22 08:44:43;;;;;;;11.25;2.58;;;22.60;99.90;;;;;;5073166;28;20017;-72
2021/12/22 08:47:11;;;;;;;10.45;2.50;;;22.60;99.90;;;;;;5073337;28;20115;-71
2021/12/22 08:49:39;;;;;;;9.35;2.60;;;22.50;99.90;;;;;;5073165;28;20058;-70
2021/12/22 08:52:07;;;;;;;11.13;2.95;;;22.50;99.90;;;;;;5073105;28;20121;-71
2021/12/22 08:54:35;;;;;;;13.05;2.58;;;22.40;99.90;;;;;;5074151;28;20032;-69
2021/12/22 08:57:03;;;;;;;15.57;2.53;;;22.40;99.90;;;;;;5073967;28;20166;-72
2021/12/22 08:59:31;;;;;;;9.35;2.10;;;22.40;99.90;;;;;;5074107;28;20039;-72
2021/12/22 09:01:59;;;;;;;9.00;2.90;;;22.40;99.90;;;;;;5074083;28;20037;-72
2021/12/22 09:04:27;;;;;;;12.50;2.88;;;22.30;99.90;;;;;;5075596;28;20069;-72
2021/12/22 09:06:55;;;;;;;7.13;2.55;;;22.30;99.90;;;;;;5074351;28;20413;-71
2021/12/22 09:09:23;;;;;;;10.25;2.55;;;22.30;99.90;;;;;;5055436;28;20047;-72
2021/12/22 09:11:51;;;;;;;8.00;2.00;;;22.30;99.90;;;;;;5073987;28;20020;-73
2021/12/22 09:14:21;;;;;;;7.40;2.30;;;22.30;99.90;;;;;;5074158;28;20392;-71
2021/12/22 09:16:48;;;;;;;7.35;2.63;;;22.30;99.90;;;;;;5073745;28;20047;-72
2021/12/22 09:19:17;;;;;;;14.63;3.22;;;22.30;99.90;;;;;;5072529;28;20025;-73
2021/12/22 09:21:45;;;;;;;9.48;2.28;;;22.40;99.90;;;;;;5072443;28;20264;-72
2021/12/22 09:24:12;;;;;;;9.45;2.30;;;22.40;99.90;;;;;;5072065;28;20434;-72
2021/12/22 09:26:40;;;;;;;12.68;2.83;;;22.30;99.90;;;;;;5072334;28;20059;-72
2021/12/22 09:29:08;;;;;;;11.50;2.85;;;22.30;99.90;;;;;;5072392;28;20051;-73
2021/12/22 09:31:36;;;;;;;9.65;2.38;;;22.20;99.90;;;;;;5054193;28;20552;-71
2021/12/22 09:34:04;;;;;;;11.45;2.60;;;22.20;99.90;;;;;;5054318;28;20020;-71
2021/12/22 09:36:33;;;;;;;6.13;2.15;;;22.10;99.90;;;;;;5072536;28;20108;-70
2021/12/22 09:39:00;;;;;;;11.02;2.92;;;22.10;99.90;;;;;;5071876;28;20049;-73
2021/12/22 09:41:28;;;;;;;11.77;2.47;;;22.00;99.90;;;;;;5053894;28;20151;-73
2021/12/22 09:43:59;;;;;;;7.35;2.08;;;21.90;99.90;;;;;;5071216;28;20021;-69
2021/12/22 09:46:26;;;;;;;14.05;3.60;;;21.80;99.90;;;;;;5071295;28;20020;-72
2021/12/22 09:49:18;;;;;;;12.32;2.40;;;21.60;99.90;;;;;;5079487;28;20334;-72
2021/12/22 09:54:32;;;;;;;8.52;2.58;;;21.60;99.90;;;;;;5078526;28;20085;-71
2021/12/22 09:57:00;;;;;;;9.45;2.42;;;21.60;99.90;;;;;;5079441;28;20035;-71
2021/12/22 09:59:28;;;;;;;11.85;2.78;;;21.60;99.90;;;;;;5079249;28;20035;-72
2021/12/22 10:01:56;;;;;;;9.27;3.00;;;21.60;99.90;;;;;;5078651;28;20028;-72
2021/12/22 10:04:24;;;;;;;8.60;2.15;;;21.60;99.90;;;;;;5084463;28;20101;-72
2021/12/22 10:06:52;;;;;;;12.32;3.15;;;21.50;99.90;;;;;;5082762;28;20032;-73
2021/12/22 10:09:24;;;;;;;7.65;2.65;;;21.50;99.90;;;;;;5065304;28;20029;-72
2021/12/22 10:11:52;;;;;;;7.38;2.42;;;21.60;99.90;;;;;;5082416;28;20508;-71
2021/12/22 10:14:27;;;;;;;10.73;2.55;;;21.50;99.90;;;;;;5083242;28;20047;-72
2021/12/22 10:16:56;;;;;;;13.57;3.00;;;21.50;99.90;;;;;;5082818;28;20438;-72
2021/12/22 10:19:28;;;;;;;7.80;2.42;;;21.50;99.90;;;;;;5084172;28;20481;-72
2021/12/22 10:22:03;;;;;;;15.57;3.05;;;21.50;99.90;;;;;;5082922;28;20388;-71
2021/12/22 10:24:37;;;;;;;7.85;2.20;;;21.50;99.90;;;;;;5083625;28;20111;-70
2021/12/22 10:27:10;;;;;;;11.60;3.00;;;21.50;99.90;;;;;;5083289;28;20419;-70
2021/12/22 10:29:38;;;;;;;9.68;3.35;;;21.50;99.90;;;;;;5082093;28;20041;-72
2021/12/22 10:32:17;;;;;;;9.07;3.13;;;21.60;99.90;;;;;;5065250;28;20028;-72
2021/12/22 10:35:06;;;;;;;11.93;2.38;;;21.60;99.90;;;;;;5082311;28;20024;-71
2021/12/22 10:37:37;;;;;;;8.88;3.10;;;21.60;99.90;;;;;;5082082;28;20055;-70
2021/12/22 10:40:24;;;;;;;21.15;3.22;;;21.60;99.90;;;;;;5066308;28;20089;-72
2021/12/22 10:42:56;;;;;;;11.18;2.70;;;21.60;99.90;;;;;;5081884;28;20058;-72
2021/12/22 10:45:25;;;;;;;9.43;2.67;;;21.60;99.90;;;;;;5082046;28;20023;-73
2021/12/22 10:50:42;;;;;;;10.98;2.80;;;21.60;99.90;;;;;;5081932;28;20023;-72
2021/12/22 10:53:13;;;;;;;4.60;2.15;;;21.60;99.90;;;;;;5081874;28;20023;-72
2021/12/22 10:55:46;;;;;;;18.27;3.50;;;21.60;99.90;;;;;;5083846;28;20021;-73
2021/12/22 10:58:20;;;;;;;13.82;2.67;;;21.60;99.90;;;;;;5062614;28;20448;-73
2021/12/22 11:01:06;;;;;;;13.95;2.80;;;21.60;99.90;;;;;;5082979;28;20025;-73
2021/12/22 11:03:47;;;;;;;14.40;2.88;;;21.60;99.90;;;;;;5080739;28;20039;-73
2021/12/22 11:06:28;;;;;;;10.65;3.45;;;21.60;99.90;;;;;;5074880;28;20032;-73
2021/12/22 11:09:13;;;;;;;7.78;2.38;;;21.60;99.90;;;;;;5074768;28;20020;-73
2021/12/22 11:11:49;;;;;;;7.25;2.50;;;21.60;99.90;;;;;;5080915;28;20114;-72
2021/12/22 11:14:39;;;;;;;17.95;3.08;;;21.60;99.90;;;;;;5073068;28;20029;-72
2021/12/22 11:17:14;;;;;;;12.15;3.17;;;21.60;99.90;;;;;;5074005;28;20126;-72
2021/12/22 11:19:49;;;;;;;7.93;2.00;;;21.60;99.90;;;;;;5074002;28;20016;-71
2021/12/22 11:22:19;;;;;;;11.30;3.17;;;21.60;99.90;;;;;;5073010;28;20041;-69
2021/12/22 11:24:49;;;;;;;9.85;3.42;;;21.60;99.90;;;;;;5072266;28;20054;-70
2021/12/22 11:27:25;;;;;;;17.73;2.55;;;21.60;99.90;;;;;;5071564;28;20058;-70
2021/12/22 11:29:57;;;;;;;13.00;3.38;;;21.60;99.90;;;;;;5073154;28;20021;-70
2021/12/22 11:32:30;;;;;;;12.48;3.05;;;21.50;99.90;;;;;;5088349;28;20020;-70
2021/12/22 11:35:01;;;;;;;10.38;2.80;;;21.50;99.90;;;;;;5090195;28;20031;-70
2021/12/22 11:37:29;;;;;;;9.23;3.08;;;21.50;99.90;;;;;;5091060;28;20044;-71
2021/12/22 11:39:58;;;;;;;13.10;2.83;;;21.50;99.90;;;;;;5091966;28;20016;-71
2021/12/22 11:42:31;;;;;;;9.23;3.17;;;21.50;99.90;;;;;;5091448;28;20123;-72
2021/12/22 11:45:21;;;;;;;7.93;3.17;;;21.50;99.90;;;;;;5092421;28;20058;-71
2021/12/22 11:47:52;;;;;;;8.73;3.05;;;21.50;99.90;;;;;;5091108;28;20016;-71
2021/12/22 11:50:23;;;;;;;7.85;3.03;;;21.40;99.90;;;;;;5093017;28;20064;-71
2021/12/22 11:53:09;;;;;;;11.38;3.28;;;21.40;99.90;;;;;;5093901;28;20054;-72
2021/12/22 11:55:43;;;;;;;13.52;2.95;;;21.40;99.90;;;;;;5094091;28;20066;-72
2021/12/22 11:58:35;;;;;;;12.50;2.88;;;21.40;99.90;;;;;;5093747;28;20039;-72
2021/12/22 12:01:10;;;;;;;9.80;2.75;;;21.40;99.90;;;;;;5092173;28;20008;-72
2021/12/22 12:03:41;;;;;;;5.38;2.58;;;21.40;99.90;;;;;;5091383;28;20032;-72
2021/12/22 12:06:16;;;;;;;7.72;3.33;;;21.40;99.90;;;;;;5093465;28;20074;-71
2021/12/22 12:08:50;;;;;;;;;;;21.40;99.90;;;;;;5094470;28;20020;-72
2021/12/22 12:23:23;;;;;;;12.38;2.97;;;21.40;99.90;;;;;;5093196;28;20043;-72
2021/12/22 12:25:51;;;;;;;9.68;2.60;;;21.40;99.90;;;;;;5079615;28;20024;-71
2021/12/22 12:28:21;;;;;;;8.32;2.90;;;21.40;99.90;;;;;;5094014;28;20103;-72
2021/12/22 12:30:51;;;;;;;9.05;2.83;;;21.40;99.90;;;;;;5094136;28;20098;-71
2021/12/22 12:33:24;;;;;;;13.40;3.13;;;21.40;99.90;;;;;;5094157;28;20012;-71
2021/12/22 12:35:59;;;;;;;15.50;3.22;;;21.40;99.90;;;;;;5094822;28;20024;-71
2021/12/22 12:38:36;;;;;;;14.18;3.97;;;21.40;99.90;;;;;;5093735;28;20484;-72
2021/12/22 12:41:11;;;;;;;9.00;2.58;;;21.40;99.90;;;;;;5093938;28;20050;-72
2021/12/22 12:43:45;;;;;;;7.32;2.58;;;21.40;99.90;;;;;;5094638;28;20024;-72
2021/12/22 12:46:27;;;;;;;8.63;2.45;;;21.40;99.90;;;;;;5094030;28;20527;-72
2021/12/22 12:49:06;;;;;;;14.48;3.25;;;21.40;99.90;;;;;;5075661;28;20090;-72
2021/12/22 12:51:49;;;;;;;7.05;2.33;;;21.30;99.90;;;;;;5094483;28;20096;-71
2021/12/22 12:54:21;;;;;;;9.40;3.35;;;21.30;99.90;;;;;;5094047;28;20084;-71
2021/12/22 12:56:57;;;;;;;12.88;3.83;;;21.30;99.90;;;;;;5093905;28;20614;-72
2021/12/22 12:59:40;;;;;;;15.27;3.28;;;21.40;99.90;;;;;;5093786;28;20096;-72
2021/12/22 13:02:09;;;;;;;15.18;3.03;;;21.30;99.90;;;;;;5093734;28;20028;-73
2021/12/22 13:04:43;;;;;;;8.55;3.17;;;21.30;99.90;;;;;;5093763;28;20024;-72
2021/12/22 13:07:20;;;;;;;13.95;3.25;;;21.30;99.90;;;;;;5093732;28;20028;-72
2021/12/22 13:09:52;;;;;;;17.00;2.58;;;21.30;99.90;;;;;;5094217;28;20020;-70
2021/12/22 13:18:06;;;;;;;12.18;3.22;;;21.40;99.90;;;;;;5093682;28;20031;-72
2021/12/22 13:20:42;;;;;;;11.63;3.20;;;21.40;99.90;;;;;;5093887;28;20063;-72
2021/12/22 13:23:22;;;;;;;11.13;3.15;;;21.40;99.90;;;;;;5093585;28;20032;-73
2021/12/22 13:25:53;;;;;;;12.55;2.92;;;21.40;99.90;;;;;;5093695;28;20099;-73
2021/12/22 13:28:25;;;;;;;10.30;3.05;;;21.40;99.90;;;;;;5093491;28;20358;-73
2021/12/22 13:31:00;;;;;;;11.68;2.83;;;21.40;99.90;;;;;;5092023;28;20380;-73
2021/12/22 13:33:34;;;;;;;15.98;3.08;;;21.40;99.90;;;;;;5073586;28;20033;-73
2021/12/22 13:36:07;;;;;;;12.13;3.80;;;21.40;99.90;;;;;;5072395;28;20027;-70
2021/12/22 13:38:42;;;;;;;9.43;3.38;;;21.40;99.90;;;;;;5075539;28;20123;-72
2021/12/22 13:41:09;;;;;;;7.85;2.85;;;21.40;99.90;;;;;;5077396;28;20111;-73
2021/12/22 13:43:37;;;;;;;8.75;3.80;;;21.30;99.90;;;;;;5077076;28;20511;-73